sensor_id;sensor_type;location;lat;lon;timestamp;P1;durP1;ratioP1;P2;durP2;ratioP2
80231;SDS011;74189;42.124;24.752;2024-01-15T00:02:09;51.50;;;19.23;;
80231;SDS011;74189;42.124;24.752;2024-01-15T00:04:41;46.95;;;18.05;;
80231;SDS011;74189;42.124;24.752;2024-01-15T00:07:07;42.90;;;17.00;;
80231;SDS011;74189;42.124;24.752;2024-01-15T00:09:33;41.53;;;17.25;;
80231;SDS011;74189;42.124;24.752;2024-01-15T00:11:59;39.15;;;16.95;;
80231;SDS011;74189;42.124;24.752;2024-01-15T00:14:25;38.58;;;16.25;;
80231;SDS011;74189;42.124;24.752;2024-01-15T00:16:51;42.38;;;17.58;;
80231;SDS011;74189;42.124;24.752;2024-01-15T00:19:19;39.20;;;17.25;;
80231;SDS011;74189;42.124;24.752;2024-01-15T00:21:48;41.15;;;18.73;;
80231;SDS011;74189;42.124;24.752;2024-01-15T00:24:14;43.28;;;16.88;;
80231;SDS011;74189;42.124;24.752;2024-01-15T00:26:40;41.75;;;17.77;;
80231;SDS011;74189;42.124;24.752;2024-01-15T00:29:06;48.72;;;18.80;;
80231;SDS011;74189;42.124;24.752;2024-01-15T00:31:35;40.28;;;17.23;;
80231;SDS011;74189;42.124;24.752;2024-01-15T00:34:01;41.47;;;17.15;;
80231;SDS011;74189;42.124;24.752;2024-01-15T00:36:27;42.20;;;18.58;;
80231;SDS011;74189;42.124;24.752;2024-01-15T00:38:53;42.75;;;17.67;;
80231;SDS011;74189;42.124;24.752;2024-01-15T00:41:19;38.33;;;17.00;;
80231;SDS011;74189;42.124;24.752;2024-01-15T00:43:45;35.22;;;16.25;;
80231;SDS011;74189;42.124;24.752;2024-01-15T00:46:11;33.20;;;14.88;;
80231;SDS011;74189;42.124;24.752;2024-01-15T00:48:37;40.22;;;16.90;;
80231;SDS011;74189;42.124;24.752;2024-01-15T00:51:06;40.00;;;17.77;;
80231;SDS011;74189;42.124;24.752;2024-01-15T00:53:31;36.05;;;16.13;;
80231;SDS011;74189;42.124;24.752;2024-01-15T00:55:57;45.45;;;16.45;;
80231;SDS011;74189;42.124;24.752;2024-01-15T00:58:23;38.53;;;15.95;;
80231;SDS011;74189;42.124;24.752;2024-01-15T01:00:48;33.33;;;15.20;;
80231;SDS011;74189;42.124;24.752;2024-01-15T01:03:14;35.10;;;15.30;;
80231;SDS011;74189;42.124;24.752;2024-01-15T01:05:40;34.60;;;16.35;;
80231;SDS011;74189;42.124;24.752;2024-01-15T01:08:06;38.22;;;15.93;;
80231;SDS011;74189;42.124;24.752;2024-01-15T01:10:31;34.42;;;15.93;;
80231;SDS011;74189;42.124;24.752;2024-01-15T01:12:57;33.85;;;15.52;;
80231;SDS011;74189;42.124;24.752;2024-01-15T01:15:23;39.33;;;16.30;;
80231;SDS011;74189;42.124;24.752;2024-01-15T01:17:49;42.83;;;17.63;;
80231;SDS011;74189;42.124;24.752;2024-01-15T01:20:15;45.45;;;17.80;;
80231;SDS011;74189;42.124;24.752;2024-01-15T01:22:41;37.92;;;17.38;;
80231;SDS011;74189;42.124;24.752;2024-01-15T01:25:07;39.92;;;17.73;;
80231;SDS011;74189;42.124;24.752;2024-01-15T01:27:33;43.83;;;19.15;;
80231;SDS011;74189;42.124;24.752;2024-01-15T01:30:00;43.75;;;17.02;;
80231;SDS011;74189;42.124;24.752;2024-01-15T01:32:26;35.05;;;16.05;;
80231;SDS011;74189;42.124;24.752;2024-01-15T01:34:52;34.05;;;14.70;;
80231;SDS011;74189;42.124;24.752;2024-01-15T01:37:17;32.25;;;14.18;;
80231;SDS011;74189;42.124;24.752;2024-01-15T01:39:43;31.33;;;14.23;;
80231;SDS011;74189;42.124;24.752;2024-01-15T01:42:09;36.88;;;14.98;;
80231;SDS011;74189;42.124;24.752;2024-01-15T01:44:36;35.13;;;15.05;;
80231;SDS011;74189;42.124;24.752;2024-01-15T01:47:02;31.42;;;14.38;;
80231;SDS011;74189;42.124;24.752;2024-01-15T01:49:28;31.33;;;14.85;;
80231;SDS011;74189;42.124;24.752;2024-01-15T01:51:58;38.30;;;14.68;;
80231;SDS011;74189;42.124;24.752;2024-01-15T01:54:26;35.05;;;15.38;;
80231;SDS011;74189;42.124;24.752;2024-01-15T01:56:54;37.90;;;16.20;;
80231;SDS011;74189;42.124;24.752;2024-01-15T01:59:21;41.65;;;17.85;;
80231;SDS011;74189;42.124;24.752;2024-01-15T02:01:48;43.05;;;16.65;;
80231;SDS011;74189;42.124;24.752;2024-01-15T02:04:14;50.85;;;18.35;;
80231;SDS011;74189;42.124;24.752;2024-01-15T02:06:41;51.75;;;19.02;;
80231;SDS011;74189;42.124;24.752;2024-01-15T02:09:07;48.35;;;19.05;;
80231;SDS011;74189;42.124;24.752;2024-01-15T02:11:34;54.00;;;18.95;;
80231;SDS011;74189;42.124;24.752;2024-01-15T02:13:59;54.85;;;20.67;;
80231;SDS011;74189;42.124;24.752;2024-01-15T02:16:26;44.47;;;18.40;;
80231;SDS011;74189;42.124;24.752;2024-01-15T02:18:51;45.83;;;17.45;;
80231;SDS011;74189;42.124;24.752;2024-01-15T02:21:17;49.83;;;19.35;;
80231;SDS011;74189;42.124;24.752;2024-01-15T02:23:43;40.55;;;17.23;;
80231;SDS011;74189;42.124;24.752;2024-01-15T02:26:08;38.00;;;17.33;;
80231;SDS011;74189;42.124;24.752;2024-01-15T02:28:34;39.97;;;17.45;;
80231;SDS011;74189;42.124;24.752;2024-01-15T02:31:00;57.72;;;18.00;;
80231;SDS011;74189;42.124;24.752;2024-01-15T02:33:26;35.72;;;16.50;;
80231;SDS011;74189;42.124;24.752;2024-01-15T02:35:51;31.48;;;13.85;;
80231;SDS011;74189;42.124;24.752;2024-01-15T02:38:17;37.78;;;13.95;;
80231;SDS011;74189;42.124;24.752;2024-01-15T02:40:44;28.50;;;12.93;;
80231;SDS011;74189;42.124;24.752;2024-01-15T02:43:09;30.85;;;13.07;;
80231;SDS011;74189;42.124;24.752;2024-01-15T02:45:36;34.05;;;14.40;;
80231;SDS011;74189;42.124;24.752;2024-01-15T02:48:02;28.55;;;13.15;;
80231;SDS011;74189;42.124;24.752;2024-01-15T02:50:28;29.65;;;12.63;;
80231;SDS011;74189;42.124;24.752;2024-01-15T02:52:54;28.60;;;13.60;;
80231;SDS011;74189;42.124;24.752;2024-01-15T02:55:19;33.65;;;12.80;;
80231;SDS011;74189;42.124;24.752;2024-01-15T02:57:45;31.45;;;13.35;;
80231;SDS011;74189;42.124;24.752;2024-01-15T03:00:11;29.38;;;14.25;;
80231;SDS011;74189;42.124;24.752;2024-01-15T03:02:37;30.90;;;15.05;;
80231;SDS011;74189;42.124;24.752;2024-01-15T03:05:08;33.83;;;15.43;;
80231;SDS011;74189;42.124;24.752;2024-01-15T03:07:36;30.83;;;14.25;;
80231;SDS011;74189;42.124;24.752;2024-01-15T03:10:02;41.40;;;14.52;;
80231;SDS011;74189;42.124;24.752;2024-01-15T03:12:28;36.25;;;14.48;;
80231;SDS011;74189;42.124;24.752;2024-01-15T03:14:56;29.42;;;14.00;;
80231;SDS011;74189;42.124;24.752;2024-01-15T03:17:22;33.50;;;13.68;;
80231;SDS011;74189;42.124;24.752;2024-01-15T03:19:48;33.60;;;13.15;;
80231;SDS011;74189;42.124;24.752;2024-01-15T03:22:14;27.70;;;13.50;;
80231;SDS011;74189;42.124;24.752;2024-01-15T03:24:40;29.42;;;13.38;;
80231;SDS011;74189;42.124;24.752;2024-01-15T03:27:06;32.58;;;14.40;;
80231;SDS011;74189;42.124;24.752;2024-01-15T03:29:32;31.63;;;15.20;;
80231;SDS011;74189;42.124;24.752;2024-01-15T03:31:57;32.40;;;14.43;;
80231;SDS011;74189;42.124;24.752;2024-01-15T03:34:23;34.72;;;15.48;;
80231;SDS011;74189;42.124;24.752;2024-01-15T03:36:49;36.50;;;16.30;;
80231;SDS011;74189;42.124;24.752;2024-01-15T03:39:14;35.65;;;15.38;;
80231;SDS011;74189;42.124;24.752;2024-01-15T03:41:40;32.05;;;14.32;;
80231;SDS011;74189;42.124;24.752;2024-01-15T03:44:06;29.13;;;13.40;;
80231;SDS011;74189;42.124;24.752;2024-01-15T03:46:32;26.17;;;13.32;;
80231;SDS011;74189;42.124;24.752;2024-01-15T03:48:57;32.80;;;13.10;;
80231;SDS011;74189;42.124;24.752;2024-01-15T03:51:23;27.45;;;13.18;;
80231;SDS011;74189;42.124;24.752;2024-01-15T03:53:48;28.38;;;13.32;;
80231;SDS011;74189;42.124;24.752;2024-01-15T03:56:14;34.08;;;13.15;;
80231;SDS011;74189;42.124;24.752;2024-01-15T03:58:40;31.25;;;13.35;;
80231;SDS011;74189;42.124;24.752;2024-01-15T04:01:09;27.23;;;13.45;;
80231;SDS011;74189;42.124;24.752;2024-01-15T04:03:35;27.75;;;12.55;;
80231;SDS011;74189;42.124;24.752;2024-01-15T04:06:01;28.67;;;13.15;;
80231;SDS011;74189;42.124;24.752;2024-01-15T04:08:27;28.95;;;12.20;;
80231;SDS011;74189;42.124;24.752;2024-01-15T04:10:52;34.50;;;13.45;;
80231;SDS011;74189;42.124;24.752;2024-01-15T04:13:18;30.40;;;12.85;;
80231;SDS011;74189;42.124;24.752;2024-01-15T04:15:44;34.65;;;13.80;;
80231;SDS011;74189;42.124;24.752;2024-01-15T04:18:09;35.72;;;15.93;;
80231;SDS011;74189;42.124;24.752;2024-01-15T04:20:35;43.10;;;16.98;;
80231;SDS011;74189;42.124;24.752;2024-01-15T04:23:01;36.70;;;15.32;;
80231;SDS011;74189;42.124;24.752;2024-01-15T04:25:26;40.13;;;16.42;;
80231;SDS011;74189;42.124;24.752;2024-01-15T04:27:52;38.75;;;17.13;;
80231;SDS011;74189;42.124;24.752;2024-01-15T04:30:17;32.38;;;14.45;;
80231;SDS011;74189;42.124;24.752;2024-01-15T04:32:43;33.78;;;14.50;;
80231;SDS011;74189;42.124;24.752;2024-01-15T04:35:09;30.45;;;13.45;;
80231;SDS011;74189;42.124;24.752;2024-01-15T04:37:34;30.92;;;13.85;;
80231;SDS011;74189;42.124;24.752;2024-01-15T04:40:00;35.63;;;14.98;;
80231;SDS011;74189;42.124;24.752;2024-01-15T04:42:25;30.02;;;14.80;;
80231;SDS011;74189;42.124;24.752;2024-01-15T04:44:51;30.65;;;13.90;;
80231;SDS011;74189;42.124;24.752;2024-01-15T04:47:17;39.15;;;15.38;;
80231;SDS011;74189;42.124;24.752;2024-01-15T04:49:42;38.13;;;14.52;;
80231;SDS011;74189;42.124;24.752;2024-01-15T04:52:08;40.08;;;14.73;;
80231;SDS011;74189;42.124;24.752;2024-01-15T04:54:35;33.03;;;14.55;;
80231;SDS011;74189;42.124;24.752;2024-01-15T04:57:01;36.63;;;15.50;;
80231;SDS011;74189;42.124;24.752;2024-01-15T04:59:27;36.72;;;15.95;;
80231;SDS011;74189;42.124;24.752;2024-01-15T05:01:53;32.63;;;13.50;;
80231;SDS011;74189;42.124;24.752;2024-01-15T05:04:19;30.83;;;13.43;;
80231;SDS011;74189;42.124;24.752;2024-01-15T05:06:45;26.55;;;11.88;;
80231;SDS011;74189;42.124;24.752;2024-01-15T05:09:11;34.22;;;14.25;;
80231;SDS011;74189;42.124;24.752;2024-01-15T05:11:38;33.40;;;12.52;;
80231;SDS011;74189;42.124;24.752;2024-01-15T05:14:04;28.27;;;13.20;;
80231;SDS011;74189;42.124;24.752;2024-01-15T05:16:30;36.97;;;15.07;;
80231;SDS011;74189;42.124;24.752;2024-01-15T05:18:55;30.58;;;12.80;;
80231;SDS011;74189;42.124;24.752;2024-01-15T05:21:21;34.28;;;13.63;;
80231;SDS011;74189;42.124;24.752;2024-01-15T05:23:46;38.30;;;13.93;;
80231;SDS011;74189;42.124;24.752;2024-01-15T05:26:12;37.50;;;14.00;;
80231;SDS011;74189;42.124;24.752;2024-01-15T05:28:38;34.58;;;13.75;;
80231;SDS011;74189;42.124;24.752;2024-01-15T05:31:05;30.27;;;13.18;;
80231;SDS011;74189;42.124;24.752;2024-01-15T05:33:31;36.88;;;14.15;;
80231;SDS011;74189;42.124;24.752;2024-01-15T05:35:57;28.10;;;12.98;;
80231;SDS011;74189;42.124;24.752;2024-01-15T05:38:23;32.92;;;14.20;;
80231;SDS011;74189;42.124;24.752;2024-01-15T05:40:49;26.05;;;12.77;;
80231;SDS011;74189;42.124;24.752;2024-01-15T05:43:15;29.23;;;13.32;;
80231;SDS011;74189;42.124;24.752;2024-01-15T05:45:42;32.58;;;14.55;;
80231;SDS011;74189;42.124;24.752;2024-01-15T05:48:09;30.20;;;14.57;;
80231;SDS011;74189;42.124;24.752;2024-01-15T05:50:35;34.25;;;15.50;;
80231;SDS011;74189;42.124;24.752;2024-01-15T05:53:01;36.13;;;16.70;;
80231;SDS011;74189;42.124;24.752;2024-01-15T05:55:27;35.42;;;15.85;;
80231;SDS011;74189;42.124;24.752;2024-01-15T05:57:53;42.45;;;18.23;;
80231;SDS011;74189;42.124;24.752;2024-01-15T06:00:18;42.00;;;18.88;;
80231;SDS011;74189;42.124;24.752;2024-01-15T06:02:44;42.10;;;19.67;;
80231;SDS011;74189;42.124;24.752;2024-01-15T06:05:10;45.60;;;19.00;;
80231;SDS011;74189;42.124;24.752;2024-01-15T06:07:35;43.20;;;21.05;;
80231;SDS011;74189;42.124;24.752;2024-01-15T06:10:02;40.90;;;19.60;;
80231;SDS011;74189;42.124;24.752;2024-01-15T06:12:29;47.58;;;20.00;;
80231;SDS011;74189;42.124;24.752;2024-01-15T06:14:56;52.83;;;20.35;;
80231;SDS011;74189;42.124;24.752;2024-01-15T06:17:21;44.88;;;20.23;;
80231;SDS011;74189;42.124;24.752;2024-01-15T06:19:47;54.90;;;19.75;;
80231;SDS011;74189;42.124;24.752;2024-01-15T06:22:13;53.90;;;21.58;;
80231;SDS011;74189;42.124;24.752;2024-01-15T06:24:38;46.33;;;20.67;;
80231;SDS011;74189;42.124;24.752;2024-01-15T06:27:04;51.22;;;21.83;;
80231;SDS011;74189;42.124;24.752;2024-01-15T06:29:30;58.90;;;23.33;;
80231;SDS011;74189;42.124;24.752;2024-01-15T06:31:56;58.55;;;22.92;;
80231;SDS011;74189;42.124;24.752;2024-01-15T06:34:22;51.58;;;21.25;;
80231;SDS011;74189;42.124;24.752;2024-01-15T06:36:47;50.42;;;20.33;;
80231;SDS011;74189;42.124;24.752;2024-01-15T06:39:13;53.05;;;21.50;;
80231;SDS011;74189;42.124;24.752;2024-01-15T06:41:39;53.67;;;20.85;;
80231;SDS011;74189;42.124;24.752;2024-01-15T06:44:11;54.53;;;21.80;;
80231;SDS011;74189;42.124;24.752;2024-01-15T06:46:44;56.92;;;22.83;;
80231;SDS011;74189;42.124;24.752;2024-01-15T06:49:10;60.75;;;24.42;;
80231;SDS011;74189;42.124;24.752;2024-01-15T06:51:36;60.55;;;26.27;;
80231;SDS011;74189;42.124;24.752;2024-01-15T06:54:02;59.42;;;25.75;;
80231;SDS011;74189;42.124;24.752;2024-01-15T06:56:28;59.95;;;25.60;;
80231;SDS011;74189;42.124;24.752;2024-01-15T06:58:54;63.25;;;26.23;;
80231;SDS011;74189;42.124;24.752;2024-01-15T07:01:20;60.50;;;26.38;;
80231;SDS011;74189;42.124;24.752;2024-01-15T07:03:46;56.90;;;25.20;;
80231;SDS011;74189;42.124;24.752;2024-01-15T07:06:12;61.33;;;27.05;;
80231;SDS011;74189;42.124;24.752;2024-01-15T07:08:38;55.10;;;24.48;;
80231;SDS011;74189;42.124;24.752;2024-01-15T07:11:04;51.17;;;24.00;;
80231;SDS011;74189;42.124;24.752;2024-01-15T07:13:30;54.28;;;24.48;;
80231;SDS011;74189;42.124;24.752;2024-01-15T07:15:56;54.17;;;25.63;;
80231;SDS011;74189;42.124;24.752;2024-01-15T07:18:22;55.97;;;24.60;;
80231;SDS011;74189;42.124;24.752;2024-01-15T07:20:48;64.05;;;26.30;;
80231;SDS011;74189;42.124;24.752;2024-01-15T07:23:14;72.50;;;28.13;;
80231;SDS011;74189;42.124;24.752;2024-01-15T07:25:40;63.50;;;28.08;;
80231;SDS011;74189;42.124;24.752;2024-01-15T07:28:06;70.53;;;29.08;;
80231;SDS011;74189;42.124;24.752;2024-01-15T07:30:31;63.38;;;27.45;;
80231;SDS011;74189;42.124;24.752;2024-01-15T07:32:57;58.85;;;27.63;;
80231;SDS011;74189;42.124;24.752;2024-01-15T07:35:23;57.60;;;25.45;;
80231;SDS011;74189;42.124;24.752;2024-01-15T07:37:48;57.78;;;26.23;;
80231;SDS011;74189;42.124;24.752;2024-01-15T07:40:14;63.95;;;28.25;;
80231;SDS011;74189;42.124;24.752;2024-01-15T07:42:40;61.75;;;26.05;;
80231;SDS011;74189;42.124;24.752;2024-01-15T07:45:07;60.67;;;26.42;;
80231;SDS011;74189;42.124;24.752;2024-01-15T07:47:33;59.40;;;27.02;;
80231;SDS011;74189;42.124;24.752;2024-01-15T07:49:59;63.78;;;26.58;;
80231;SDS011;74189;42.124;24.752;2024-01-15T07:52:25;56.85;;;26.27;;
80231;SDS011;74189;42.124;24.752;2024-01-15T07:54:51;55.78;;;25.98;;
80231;SDS011;74189;42.124;24.752;2024-01-15T07:57:16;55.45;;;25.30;;
80231;SDS011;74189;42.124;24.752;2024-01-15T07:59:42;55.97;;;24.90;;
80231;SDS011;74189;42.124;24.752;2024-01-15T08:02:08;55.65;;;23.20;;
80231;SDS011;74189;42.124;24.752;2024-01-15T08:04:33;56.78;;;21.77;;
80231;SDS011;74189;42.124;24.752;2024-01-15T08:06:59;46.53;;;21.85;;
80231;SDS011;74189;42.124;24.752;2024-01-15T08:09:25;45.92;;;19.63;;
80231;SDS011;74189;42.124;24.752;2024-01-15T08:11:50;49.40;;;21.60;;
80231;SDS011;74189;42.124;24.752;2024-01-15T08:14:17;50.17;;;21.80;;
80231;SDS011;74189;42.124;24.752;2024-01-15T08:16:43;44.58;;;20.52;;
80231;SDS011;74189;42.124;24.752;2024-01-15T08:19:08;43.47;;;19.80;;
80231;SDS011;74189;42.124;24.752;2024-01-15T08:21:34;46.58;;;19.95;;
80231;SDS011;74189;42.124;24.752;2024-01-15T08:24:00;38.67;;;18.40;;
80231;SDS011;74189;42.124;24.752;2024-01-15T08:26:27;39.50;;;17.35;;
80231;SDS011;74189;42.124;24.752;2024-01-15T08:28:53;38.67;;;17.35;;
80231;SDS011;74189;42.124;24.752;2024-01-15T08:31:19;37.05;;;16.50;;
80231;SDS011;74189;42.124;24.752;2024-01-15T08:33:44;34.60;;;16.42;;
80231;SDS011;74189;42.124;24.752;2024-01-15T08:36:11;40.80;;;18.42;;
80231;SDS011;74189;42.124;24.752;2024-01-15T08:38:36;35.42;;;17.00;;
80231;SDS011;74189;42.124;24.752;2024-01-15T08:41:02;36.78;;;16.73;;
80231;SDS011;74189;42.124;24.752;2024-01-15T08:43:28;30.73;;;15.10;;
80231;SDS011;74189;42.124;24.752;2024-01-15T08:45:56;37.33;;;16.27;;
80231;SDS011;74189;42.124;24.752;2024-01-15T08:48:22;35.33;;;16.95;;
80231;SDS011;74189;42.124;24.752;2024-01-15T08:50:48;42.00;;;18.35;;
80231;SDS011;74189;42.124;24.752;2024-01-15T08:53:13;32.20;;;16.75;;
80231;SDS011;74189;42.124;24.752;2024-01-15T08:55:39;46.92;;;17.48;;
80231;SDS011;74189;42.124;24.752;2024-01-15T08:58:09;39.50;;;17.63;;
80231;SDS011;74189;42.124;24.752;2024-01-15T09:00:35;61.72;;;17.05;;
80231;SDS011;74189;42.124;24.752;2024-01-15T09:03:01;50.97;;;18.40;;
80231;SDS011;74189;42.124;24.752;2024-01-15T09:05:27;44.47;;;18.55;;
80231;SDS011;74189;42.124;24.752;2024-01-15T09:07:56;42.38;;;17.73;;
80231;SDS011;74189;42.124;24.752;2024-01-15T09:10:21;37.92;;;17.75;;
80231;SDS011;74189;42.124;24.752;2024-01-15T09:12:47;37.83;;;17.38;;
80231;SDS011;74189;42.124;24.752;2024-01-15T09:15:14;54.92;;;18.73;;
80231;SDS011;74189;42.124;24.752;2024-01-15T09:17:40;46.35;;;17.98;;
80231;SDS011;74189;42.124;24.752;2024-01-15T09:20:05;38.15;;;17.88;;
80231;SDS011;74189;42.124;24.752;2024-01-15T09:22:33;47.83;;;19.42;;
80231;SDS011;74189;42.124;24.752;2024-01-15T09:24:59;47.65;;;19.98;;
80231;SDS011;74189;42.124;24.752;2024-01-15T09:27:25;45.92;;;19.55;;
80231;SDS011;74189;42.124;24.752;2024-01-15T09:29:53;40.42;;;18.08;;
80231;SDS011;74189;42.124;24.752;2024-01-15T09:32:19;47.42;;;19.50;;
80231;SDS011;74189;42.124;24.752;2024-01-15T09:34:47;44.97;;;19.30;;
80231;SDS011;74189;42.124;24.752;2024-01-15T09:37:13;55.75;;;24.73;;
80231;SDS011;74189;42.124;24.752;2024-01-15T09:39:40;50.25;;;20.80;;
80231;SDS011;74189;42.124;24.752;2024-01-15T09:42:06;44.58;;;19.13;;
80231;SDS011;74189;42.124;24.752;2024-01-15T09:44:33;49.67;;;20.33;;
80231;SDS011;74189;42.124;24.752;2024-01-15T09:46:59;51.08;;;21.35;;
80231;SDS011;74189;42.124;24.752;2024-01-15T09:49:25;48.65;;;22.20;;
80231;SDS011;74189;42.124;24.752;2024-01-15T09:51:51;59.72;;;23.08;;
80231;SDS011;74189;42.124;24.752;2024-01-15T09:54:17;50.58;;;21.70;;
80231;SDS011;74189;42.124;24.752;2024-01-15T09:56:46;46.75;;;21.98;;
80231;SDS011;74189;42.124;24.752;2024-01-15T09:59:15;52.83;;;23.60;;
80231;SDS011;74189;42.124;24.752;2024-01-15T10:01:43;64.38;;;27.02;;
80231;SDS011;74189;42.124;24.752;2024-01-15T10:04:13;65.40;;;28.48;;
80231;SDS011;74189;42.124;24.752;2024-01-15T10:06:39;60.75;;;28.80;;
80231;SDS011;74189;42.124;24.752;2024-01-15T10:09:10;75.38;;;31.92;;
80231;SDS011;74189;42.124;24.752;2024-01-15T10:11:39;82.88;;;33.85;;
80231;SDS011;74189;42.124;24.752;2024-01-15T10:14:06;82.15;;;35.83;;
80231;SDS011;74189;42.124;24.752;2024-01-15T10:16:33;87.15;;;35.42;;
80231;SDS011;74189;42.124;24.752;2024-01-15T10:18:59;92.32;;;38.92;;
80231;SDS011;74189;42.124;24.752;2024-01-15T10:21:25;84.47;;;37.38;;
80231;SDS011;74189;42.124;24.752;2024-01-15T10:23:51;87.88;;;39.28;;
80231;SDS011;74189;42.124;24.752;2024-01-15T10:26:17;92.80;;;39.95;;
80231;SDS011;74189;42.124;24.752;2024-01-15T10:28:42;86.88;;;38.75;;
80231;SDS011;74189;42.124;24.752;2024-01-15T10:31:08;89.25;;;39.00;;
80231;SDS011;74189;42.124;24.752;2024-01-15T10:33:35;87.68;;;40.95;;
80231;SDS011;74189;42.124;24.752;2024-01-15T10:36:00;87.05;;;38.78;;
80231;SDS011;74189;42.124;24.752;2024-01-15T10:38:26;84.45;;;38.33;;
80231;SDS011;74189;42.124;24.752;2024-01-15T10:40:55;82.95;;;34.13;;
80231;SDS011;74189;42.124;24.752;2024-01-15T10:43:22;84.00;;;35.53;;
80231;SDS011;74189;42.124;24.752;2024-01-15T10:45:48;75.68;;;33.88;;
80231;SDS011;74189;42.124;24.752;2024-01-15T10:48:16;72.32;;;31.65;;
80231;SDS011;74189;42.124;24.752;2024-01-15T10:50:45;70.00;;;27.02;;
80231;SDS011;74189;42.124;24.752;2024-01-15T10:53:13;78.57;;;32.33;;
80231;SDS011;74189;42.124;24.752;2024-01-15T10:55:42;83.93;;;33.70;;
80231;SDS011;74189;42.124;24.752;2024-01-15T10:58:08;86.47;;;36.58;;
80231;SDS011;74189;42.124;24.752;2024-01-15T11:00:37;92.70;;;39.45;;
80231;SDS011;74189;42.124;24.752;2024-01-15T11:03:04;93.93;;;38.17;;
80231;SDS011;74189;42.124;24.752;2024-01-15T11:05:36;88.38;;;39.78;;
80231;SDS011;74189;42.124;24.752;2024-01-15T11:08:06;94.03;;;38.42;;
80231;SDS011;74189;42.124;24.752;2024-01-15T11:10:37;87.40;;;38.05;;
80231;SDS011;74189;42.124;24.752;2024-01-15T11:13:48;85.60;;;37.28;;
80231;SDS011;74189;42.124;24.752;2024-01-15T11:18:27;83.00;;;34.55;;
80231;SDS011;74189;42.124;24.752;2024-01-15T11:21:19;72.68;;;32.42;;
80231;SDS011;74189;42.124;24.752;2024-01-15T11:23:53;71.25;;;29.95;;
80231;SDS011;74189;42.124;24.752;2024-01-15T11:29:06;66.85;;;28.45;;
80231;SDS011;74189;42.124;24.752;2024-01-15T11:34:05;67.70;;;29.15;;
80231;SDS011;74189;42.124;24.752;2024-01-15T11:41:58;53.45;;;26.15;;
80231;SDS011;74189;42.124;24.752;2024-01-15T11:44:25;55.08;;;23.15;;
80231;SDS011;74189;42.124;24.752;2024-01-15T11:46:58;44.30;;;21.50;;
